Time;durP1;ratioP1;P1;durP2;ratioP2;P2;SDS_P1;SDS_P2;PMS_P1;PMS_P2;Temp;Humidity;BMP_temperature;BMP_pressure;BME280_temperature;BME280_humidity;BME280_pressure;Samples;Min_cycle;Max_cycle;Signal;HPM_P1;HPM_P2
2022/02/24 00:00:10;;;;;;;9.60;2.37;;;;;;;6.38;70.78;100124.19;5015620;28;20033;-73
2022/02/24 00:02:39;;;;;;;7.15;2.20;;;;;;;6.38;70.75;100132.13;5033798;28;20279;-75
2022/02/24 00:05:05;;;;;;;7.70;2.22;;;;;;;6.39;70.64;100121.41;5015549;28;20037;-73
2022/02/24 00:07:31;;;;;;;4.68;1.63;;;;;;;6.45;70.59;100128.72;4999525;28;20040;-73
2022/02/24 00:09:56;;;;;;;5.83;2.03;;;;;;;6.41;70.86;100123.88;5031934;28;20041;-73
2022/02/24 00:12:22;;;;;;;8.43;2.13;;;;;;;6.41;70.90;100119.41;5015679;28;20318;-73
2022/02/24 00:14:47;;;;;;;12.88;2.47;;;;;;;6.50;70.57;100123.81;5033295;28;20404;-73
2022/02/24 00:17:13;;;;;;;7.03;2.43;;;;;;;6.46;70.56;100108.34;4999489;28;20398;-73
2022/02/24 00:19:38;;;;;;;12.80;1.67;;;;;;;6.44;70.41;100091.75;5031799;28;20606;-73
2022/02/24 00:22:04;;;;;;;7.53;1.90;;;;;;;6.44;70.63;100107.66;5013187;28;20674;-73
2022/02/24 00:24:30;;;;;;;8.02;2.20;;;;;;;6.42;70.99;100109.66;5015467;28;20038;-73
2022/02/24 00:26:55;;;;;;;11.98;2.33;;;;;;;6.40;71.14;100132.84;5015275;28;20025;-73
2022/02/24 00:29:21;;;;;;;10.45;3.15;;;;;;;6.40;71.30;100157.53;5015224;28;20056;-73
2022/02/24 00:31:46;;;;;;;11.33;2.10;;;;;;;6.40;71.34;100136.31;5015494;28;20029;-73
2022/02/24 00:34:12;;;;;;;10.10;3.07;;;;;;;6.41;71.29;100126.53;5031811;28;20037;-73
2022/02/24 00:36:37;;;;;;;5.60;2.60;;;;;;;6.38;71.29;100124.19;4998830;28;20027;-73
2022/02/24 00:39:04;;;;;;;9.57;1.93;;;;;;;6.39;71.90;100157.66;5014975;28;20045;-73
2022/02/24 00:41:29;;;;;;;6.35;1.75;;;;;;;6.40;71.76;100160.16;5015061;28;20079;-73
2022/02/24 00:43:54;;;;;;;8.03;1.63;;;;;;;6.40;71.91;100154.88;5015190;28;20069;-73
2022/02/24 00:46:20;;;;;;;4.97;2.13;;;;;;;6.37;72.12;100157.84;5015166;28;20035;-73
2022/02/24 00:48:45;;;;;;;6.93;2.13;;;;;;;6.38;71.84;100161.31;5030182;28;20046;-73
2022/02/24 00:51:10;;;;;;;10.13;2.07;;;;;;;6.32;72.04;100147.66;5014798;28;20025;-73
2022/02/24 00:53:41;;;;;;;7.10;2.30;;;;;;;6.37;72.21;100167.56;5031693;28;20483;-73
2022/02/24 00:56:09;;;;;;;11.55;2.65;;;;;;;6.38;72.45;100179.88;5031389;28;20038;-73
2022/02/24 00:58:35;;;;;;;6.30;2.58;;;;;;;6.38;72.41;100174.56;5032610;28;20025;-73
2022/02/24 01:01:00;;;;;;;10.43;2.47;;;;;;;6.37;72.47;100167.56;5014776;28;20040;-73
2022/02/24 01:03:26;;;;;;;9.63;2.50;;;;;;;6.37;72.50;100170.22;5031431;28;20033;-73
2022/02/24 01:05:52;;;;;;;8.37;2.37;;;;;;;6.40;72.30;100167.31;4998392;28;20128;-73
2022/02/24 01:08:17;;;;;;;10.68;2.65;;;;;;;6.46;71.98;100145.47;5032612;28;20033;-73
2022/02/24 01:10:43;;;;;;;10.00;2.70;;;;;;;6.40;72.18;100135.47;5032147;28;20146;-73
2022/02/24 01:13:08;;;;;;;9.10;2.47;;;;;;;6.42;72.15;100137.00;5032328;28;20036;-73
2022/02/24 01:15:38;;;;;;;7.80;3.10;;;;;;;6.40;72.07;100117.75;5032449;28;20478;-73
2022/02/24 01:18:04;;;;;;;9.50;2.10;;;;;;;6.47;71.83;100107.38;5014469;28;20282;-73
2022/02/24 01:20:30;;;;;;;;;;;;;;;6.51;71.51;100100.78;5014804;28;20051;-73
2022/02/24 01:22:55;;;;;;;;;;;;;;;6.50;71.54;100091.97;5014884;28;20366;-73
2022/02/24 01:25:21;;;;;;;9.87;2.60;;;;;;;6.50;71.56;100081.38;5032183;28;19999;-73
2022/02/24 01:27:47;;;;;;;10.70;2.90;;;;;;;6.53;71.27;100066.97;4998146;28;20037;-73
2022/02/24 01:30:13;;;;;;;6.90;2.58;;;;;;;6.58;71.28;100070.03;5031845;28;20033;-73
2022/02/24 01:32:39;;;;;;;8.88;2.40;;;;;;;6.62;70.96;100051.97;5014120;28;20030;-73
2022/02/24 01:35:05;;;;;;;6.90;2.13;;;;;;;6.57;71.11;100048.94;4997901;28;20083;-73
2022/02/24 01:37:30;;;;;;;9.20;2.75;;;;;;;6.59;70.95;100041.66;5031997;28;20029;-74
2022/02/24 01:39:55;;;;;;;7.77;3.33;;;;;;;6.52;71.12;100026.38;5031641;28;20172;-73
2022/02/24 01:42:21;;;;;;;5.50;2.17;;;;;;;6.53;71.39;100059.88;5014063;28;20067;-73
2022/02/24 01:44:47;;;;;;;8.50;2.17;;;;;;;6.58;71.10;100061.22;5030706;28;20120;-73
2022/02/24 01:47:13;;;;;;;;;;;;;;;6.57;71.28;100052.41;5014410;28;20063;-73
2022/02/24 01:49:39;;;;;;;9.60;3.50;;;;;;;6.52;71.27;100030.84;5031565;28;20011;-73
2022/02/24 01:52:07;;;;;;;10.07;2.25;;;;;;;6.50;71.46;100054.03;5031842;28;20386;-72
2022/02/24 01:54:34;;;;;;;12.48;2.78;;;;;;;6.52;71.55;100057.34;5014038;28;20363;-73
2022/02/24 01:57:00;;;;;;;8.75;1.83;;;;;;;6.48;71.71;100054.16;5013793;28;20030;-73
2022/02/24 01:59:26;;;;;;;10.13;2.33;;;;;;;6.45;71.94;100049.19;5013655;28;20437;-73
2022/02/24 02:01:52;;;;;;;8.52;2.38;;;;;;;6.46;71.95;100057.97;5013759;28;20079;-73
2022/02/24 02:04:17;;;;;;;11.03;2.37;;;;;;;6.45;72.06;100058.97;5031346;28;20042;-73
2022/02/24 02:06:43;;;;;;;13.90;2.57;;;;;;;6.42;72.05;100046.00;5031759;28;20036;-75
2022/02/24 02:09:09;;;;;;;7.70;2.03;;;;;;;6.44;72.19;100060.78;5013343;28;20033;-73
2022/02/24 02:11:35;;;;;;;9.93;2.60;;;;;;;6.43;72.58;100084.78;5031512;28;20477;-73
2022/02/24 02:14:00;;;;;;;13.75;2.40;;;;;;;6.39;72.49;100075.47;4997527;28;20069;-73
2022/02/24 02:16:25;;;;;;;6.90;1.80;;;;;;;6.37;72.66;100073.00;5011554;28;20049;-73
2022/02/24 02:18:51;;;;;;;5.30;2.00;;;;;;;6.29;72.83;100059.63;4977608;28;20487;-73
2022/02/24 02:21:16;;;;;;;6.37;2.90;;;;;;;6.33;73.17;100091.00;5011669;28;20022;-73
2022/02/24 02:23:41;;;;;;;12.37;2.80;;;;;;;6.32;73.42;100099.94;5011388;28;20034;-72
2022/02/24 02:26:07;;;;;;;9.90;2.33;;;;;;;6.30;73.36;100082.53;5011739;28;20076;-73
2022/02/24 02:28:34;;;;;;;8.98;2.90;;;;;;;6.31;73.45;100100.91;5011270;28;20029;-73
2022/02/24 02:31:00;;;;;;;11.95;3.13;;;;;;;6.30;73.41;100107.22;4993768;28;20072;-72
2022/02/24 02:33:25;;;;;;;15.93;3.38;;;;;;;6.25;73.72;100104.19;5010080;28;20029;-74
2022/02/24 02:35:51;;;;;;;6.80;2.40;;;;;;;6.27;74.11;100109.31;4993792;28;20399;-74
2022/02/24 02:38:16;;;;;;;10.13;2.67;;;;;;;6.23;74.34;100111.47;5021906;28;20029;-73
2022/02/24 02:40:42;;;;;;;10.83;2.43;;;;;;;6.23;74.53;100129.19;5012900;28;20029;-73
2022/02/24 02:43:08;;;;;;;9.40;2.53;;;;;;;6.22;74.75;100136.28;5031021;28;20095;-73
2022/02/24 02:45:35;;;;;;;6.97;2.33;;;;;;;6.18;74.58;100123.47;5013308;28;20029;-74
2022/02/24 02:48:01;;;;;;;12.10;2.35;;;;;;;6.22;74.77;100146.06;5013387;28;20449;-74
2022/02/24 02:50:28;;;;;;;8.80;3.22;;;;;;;6.19;74.88;100133.09;5030419;28;20030;-73
2022/02/24 02:52:53;;;;;;;15.00;3.80;;;;;;;6.17;74.88;100125.28;4996984;28;20037;-73
2022/02/24 02:55:19;;;;;;;13.13;4.05;;;;;;;6.15;74.79;100119.31;5030596;28;20029;-74
2022/02/24 02:57:45;;;;;;;10.85;2.83;;;;;;;6.13;75.00;100110.66;5013296;28;20042;-73
2022/02/24 03:00:12;;;;;;;9.80;2.88;;;;;;;6.08;75.11;100119.06;4996274;28;20029;-74
2022/02/24 03:02:38;;;;;;;11.65;3.60;;;;;;;6.06;75.43;100118.41;5030940;28;20033;-74
2022/02/24 03:05:04;;;;;;;9.82;2.85;;;;;;;6.08;75.70;100134.13;5012852;28;20025;-74
2022/02/24 03:07:30;;;;;;;13.32;3.28;;;;;;;6.11;75.55;100125.88;5013419;28;20120;-74
2022/02/24 03:09:55;;;;;;;8.67;2.63;;;;;;;6.07;75.33;100112.09;5030604;28;20367;-74
2022/02/24 03:12:21;;;;;;;9.18;3.22;;;;;;;6.06;75.92;100120.19;5034122;28;20041;-73
2022/02/24 03:14:47;;;;;;;11.68;3.20;;;;;;;6.04;76.04;100128.31;5017345;28;20032;-74
2022/02/24 03:17:14;;;;;;;7.50;2.88;;;;;;;6.02;76.25;100118.84;5017759;28;20111;-74
2022/02/24 03:19:39;;;;;;;;;;;;;;;6.05;76.25;100123.84;5000886;28;20659;-73
2022/02/24 03:22:08;;;;;;;;;;;;;;;6.11;76.33;100139.13;5001174;28;19939;-74
2022/02/24 03:24:34;;;;;;;14.68;4.22;;;;;;;5.99;76.83;100114.66;5000383;28;20421;-74
2022/02/24 03:26:59;;;;;;;5.63;3.00;;;;;;;5.99;76.63;100138.50;5017015;28;20163;-73
2022/02/24 03:29:24;;;;;;;10.77;3.57;;;;;;;5.96;76.88;100130.03;5016460;28;20038;-74
2022/02/24 03:31:50;;;;;;;14.70;3.10;;;;;;;5.96;76.81;100145.94;5016688;28;20037;-74
2022/02/24 03:34:15;;;;;;;13.50;3.90;;;;;;;6.00;76.92;100134.06;5016779;28;20029;-72
2022/02/24 03:36:40;;;;;;;8.03;2.40;;;;;;;6.05;76.42;100129.13;5034141;28;20414;-74
2022/02/24 03:39:06;;;;;;;16.53;4.17;;;;;;;6.05;76.80;100114.06;5016235;28;20057;-73
2022/02/24 03:41:32;;;;;;;8.02;2.83;;;;;;;6.00;76.69;100104.91;5032925;28;20037;-73
2022/02/24 03:43:58;;;;;;;7.88;3.22;;;;;;;6.03;77.00;100112.56;5016470;28;20037;-74
2022/02/24 03:46:23;;;;;;;13.50;4.07;;;;;;;6.02;77.20;100121.50;5016515;28;20463;-74
2022/02/24 03:48:49;;;;;;;6.53;3.53;;;;;;;5.96;77.29;100128.19;5032888;28;20383;-74
2022/02/24 03:51:16;;;;;;;9.73;4.35;;;;;;;5.97;77.61;100140.50;5015960;28;20033;-73
2022/02/24 03:53:41;;;;;;;;;;;;;;;5.88;77.97;100133.38;5017273;28;20029;-73
2022/02/24 03:56:06;;;;;;;12.43;4.05;;;;;;;5.86;77.88;100128.22;5016339;28;19920;-73
2022/02/24 03:58:32;;;;;;;16.90;3.28;;;;;;;5.89;77.97;100146.47;5034027;28;20479;-73
2022/02/24 04:00:57;;;;;;;6.97;2.67;;;;;;;5.90;77.95;100139.38;5016299;28;20052;-73
2022/02/24 04:03:22;;;;;;;8.90;3.93;;;;;;;5.87;78.14;100126.41;5016357;28;20043;-73
2022/02/24 04:05:48;;;;;;;12.53;3.33;;;;;;;5.82;78.06;100113.59;5034033;28;20412;-73
2022/02/24 04:08:14;;;;;;;10.50;4.28;;;;;;;5.79;78.28;100113.91;5034277;28;20056;-73
2022/02/24 04:10:39;;;;;;;10.30;3.03;;;;;;;5.83;78.34;100119.72;5016061;28;20096;-73
2022/02/24 04:13:05;;;;;;;8.07;3.20;;;;;;;5.80;78.50;100120.03;5032526;28;20398;-73
2022/02/24 04:15:30;;;;;;;11.83;3.67;;;;;;;5.84;78.45;100132.84;5033667;28;20079;-74
2022/02/24 04:17:55;;;;;;;10.60;4.40;;;;;;;5.80;78.35;100118.19;5015974;28;20053;-73
2022/02/24 04:20:21;;;;;;;9.07;3.77;;;;;;;5.84;78.49;100119.59;5033342;28;20079;-72
2022/02/24 04:22:46;;;;;;;9.10;4.22;;;;;;;5.82;78.34;100113.59;5015647;28;20140;-74
2022/02/24 04:25:11;;;;;;;10.87;3.97;;;;;;;5.79;78.36;100103.31;5015792;28;20021;-73
2022/02/24 04:27:45;;;;;;;12.43;4.30;;;;;;;5.85;78.28;100109.81;5032222;28;20040;-72
2022/02/24 04:30:11;;;;;;;7.32;3.35;;;;;;;5.82;78.01;100087.09;4999240;28;20033;-73
2022/02/24 04:32:36;;;;;;;10.83;4.10;;;;;;;5.83;77.98;100086.16;5015669;28;20021;-73
2022/02/24 04:35:02;;;;;;;8.00;2.97;;;;;;;5.82;77.87;100076.50;5015555;28;20075;-73
2022/02/24 04:37:27;;;;;;;13.17;3.33;;;;;;;5.81;77.73;100066.91;5015504;28;20026;-73
2022/02/24 04:39:53;;;;;;;9.93;3.40;;;;;;;5.81;77.74;100052.84;5033009;28;20021;-73
2022/02/24 04:42:18;;;;;;;13.50;3.80;;;;;;;5.82;77.43;100047.38;5032575;28;20029;-73
2022/02/24 04:44:43;;;;;;;7.90;3.00;;;;;;;5.84;76.95;100023.38;5015358;28;20479;-73
2022/02/24 04:47:09;;;;;;;15.07;3.40;;;;;;;5.85;76.80;100006.50;5015346;28;20045;-73
2022/02/24 04:49:34;;;;;;;6.53;3.23;;;;;;;5.81;76.80;100000.69;5014781;28;20045;-73
2022/02/24 04:51:59;;;;;;;10.43;3.10;;;;;;;5.79;76.72;99991.22;5015380;28;20033;-73
2022/02/24 04:54:25;;;;;;;7.93;3.45;;;;;;;5.85;76.33;99980.88;5031693;28;20049;-73
2022/02/24 04:56:50;;;;;;;14.10;3.00;;;;;;;5.85;75.99;99951.72;5017441;28;20404;-73
2022/02/24 04:59:16;;;;;;;7.50;2.40;;;;;;;5.84;75.53;99920.91;4983146;28;20025;-73
2022/02/24 05:01:41;;;;;;;9.93;2.50;;;;;;;5.89;75.21;99931.88;5004938;28;20119;-74
2022/02/24 05:04:06;;;;;;;10.40;3.00;;;;;;;5.86;75.36;99897.75;4995344;28;20471;-73
2022/02/24 05:06:32;;;;;;;7.50;4.13;;;;;;;5.77;75.25;99872.16;4995147;28;20128;-73
2022/02/24 05:08:57;;;;;;;13.67;3.70;;;;;;;5.82;75.42;99885.78;4978931;28;20044;-73
2022/02/24 05:11:22;;;;;;;13.43;2.93;;;;;;;5.86;74.97;99871.25;5012928;28;20029;-73
2022/02/24 05:13:48;;;;;;;12.80;3.37;;;;;;;5.89;74.75;99860.34;5011489;28;20037;-73
2022/02/24 05:16:13;;;;;;;9.50;3.57;;;;;;;5.88;74.48;99863.16;5011614;28;20037;-72
2022/02/24 05:18:38;;;;;;;12.77;3.53;;;;;;;5.87;74.31;99833.16;4994966;28;20026;-73
2022/02/24 05:21:04;;;;;;;7.57;3.33;;;;;;;5.94;73.67;99825.47;5012764;28;20442;-73
2022/02/24 05:23:29;;;;;;;12.27;3.13;;;;;;;5.89;73.74;99815.31;5012677;28;20037;-73
2022/02/24 05:25:55;;;;;;;9.97;3.33;;;;;;;5.93;73.70;99823.78;5012564;28;20545;-74
2022/02/24 05:28:20;;;;;;;12.77;3.10;;;;;;;5.91;73.80;99820.47;4994887;28;20034;-73
2022/02/24 05:30:45;;;;;;;11.40;3.30;;;;;;;5.87;73.70;99809.31;5012534;28;20049;-73
2022/02/24 05:33:11;;;;;;;10.17;2.90;;;;;;;5.91;73.58;99804.56;4994547;28;20069;-73
2022/02/24 05:35:36;;;;;;;10.33;2.60;;;;;;;5.92;73.49;99801.78;4994320;28;20038;-73
2022/02/24 05:38:01;;;;;;;9.87;3.97;;;;;;;5.89;73.16;99790.63;4994708;28;20060;-73
2022/02/24 05:40:27;;;;;;;9.77;2.70;;;;;;;5.93;73.21;99797.28;4994250;28;20080;-73
2022/02/24 05:42:52;;;;;;;7.90;2.70;;;;;;;5.84;73.01;99769.91;4994727;28;20293;-73
2022/02/24 05:45:18;;;;;;;12.97;2.83;;;;;;;5.91;73.05;99780.72;4994529;28;20037;-73
2022/02/24 05:47:43;;;;;;;9.60;2.70;;;;;;;5.89;72.68;99749.06;5011047;28;20068;-73
2022/02/24 05:50:09;;;;;;;17.33;2.40;;;;;;;5.98;72.39;99754.47;4994291;28;20118;-73
2022/02/24 05:52:35;;;;;;;12.45;2.47;;;;;;;5.92;72.50;99737.34;4994718;28;20041;-73
2022/02/24 05:55:01;;;;;;;;;;;;;;;5.91;72.09;99710.00;5012116;28;20042;-73
2022/02/24 05:57:26;;;;;;;5.82;2.08;;;;;;;5.91;72.25;99712.66;4994447;28;19909;-73
2022/02/24 05:59:52;;;;;;;10.45;3.35;;;;;;;5.92;71.95;99701.09;4993965;28;20116;-73
2022/02/24 06:02:18;;;;;;;9.48;2.40;;;;;;;5.90;71.96;99692.47;4996274;28;20079;-73
2022/02/24 06:04:44;;;;;;;6.25;2.50;;;;;;;5.93;71.26;99676.25;4994274;28;20407;-73
2022/02/24 06:07:09;;;;;;;11.73;1.95;;;;;;;5.92;71.48;99685.19;5010749;28;20524;-73
2022/02/24 06:09:34;;;;;;;7.83;1.90;;;;;;;5.93;71.26;99676.25;4993871;28;20038;-74
2022/02/24 06:12:00;;;;;;;7.63;2.80;;;;;;;5.96;71.03;99658.41;5011819;28;20034;-73
2022/02/24 06:14:25;;;;;;;4.97;1.60;;;;;;;5.92;70.98;99665.81;5011679;28;20497;-73
2022/02/24 06:16:50;;;;;;;8.27;2.23;;;;;;;5.97;70.64;99645.00;4993996;28;20651;-72
2022/02/24 06:19:16;;;;;;;6.60;1.53;;;;;;;5.99;70.68;99647.47;4993801;28;20062;-73
2022/02/24 06:21:41;;;;;;;11.47;2.87;;;;;;;5.93;70.58;99638.34;5026612;28;20030;-73
2022/02/24 06:24:07;;;;;;;8.60;1.77;;;;;;;5.96;70.75;99650.47;5011630;28;20038;-73
2022/02/24 06:26:32;;;;;;;9.38;1.95;;;;;;;5.99;70.44;99643.00;5011443;28;20026;-73
2022/02/24 06:28:58;;;;;;;7.33;2.50;;;;;;;5.94;70.67;99640.00;5011360;28;20573;-73
2022/02/24 06:31:23;;;;;;;8.43;2.33;;;;;;;5.90;70.63;99628.88;5026336;28;20402;-73
2022/02/24 06:33:48;;;;;;;6.13;2.00;;;;;;;5.87;71.03;99649.56;4993905;28;20029;-73
2022/02/24 06:36:14;;;;;;;9.63;1.93;;;;;;;5.91;70.69;99662.31;4993842;28;20288;-73
2022/02/24 06:38:39;;;;;;;13.90;2.80;;;;;;;5.92;70.95;99673.75;4993539;28;20049;-73
2022/02/24 06:41:05;;;;;;;10.80;2.50;;;;;;;5.90;70.99;99673.09;5009747;28;20029;-73
2022/02/24 06:43:30;;;;;;;9.97;2.23;;;;;;;5.85;71.43;99676.22;4993566;28;20100;-73
2022/02/24 06:45:55;;;;;;;9.67;2.67;;;;;;;5.85;71.63;99697.41;4993272;28;20041;-73
2022/02/24 06:48:21;;;;;;;8.77;2.13;;;;;;;5.86;71.93;99714.97;4993573;28;20034;-73
2022/02/24 06:50:49;;;;;;;6.95;3.67;;;;;;;5.83;72.08;99717.06;4993203;28;20041;-73
2022/02/24 06:53:15;;;;;;;11.52;2.65;;;;;;;5.87;72.10;99753.69;5010996;28;20109;-73
2022/02/24 06:55:40;;;;;;;9.30;2.50;;;;;;;5.83;72.75;99744.41;5013020;28;20026;-72
2022/02/24 06:58:06;;;;;;;9.40;2.85;;;;;;;5.80;72.92;99771.19;5011139;28;20033;-73
2022/02/24 07:00:33;;;;;;;13.57;3.03;;;;;;;5.77;73.45;99776.81;4993158;28;20033;-73
2022/02/24 07:02:58;;;;;;;;;;;;;;;5.80;73.62;99816.22;4993757;28;20069;-73
2022/02/24 07:05:23;;;;;;;8.95;3.58;;;;;;;5.79;74.00;99813.75;4993268;28;20327;-73
2022/02/24 07:07:49;;;;;;;7.47;2.87;;;;;;;5.82;74.08;99832.81;4993357;28;20029;-73
2022/02/24 07:10:15;;;;;;;7.13;2.63;;;;;;;5.84;74.23;99830.84;5030029;28;20463;-73
2022/02/24 07:12:45;;;;;;;13.30;4.00;;;;;;;5.80;74.46;99832.13;4996172;28;20315;-73
2022/02/24 07:15:12;;;;;;;11.18;3.75;;;;;;;5.87;74.70;99859.66;5012649;28;20342;-73
2022/02/24 07:17:42;;;;;;;17.23;3.53;;;;;;;5.81;75.01;99851.53;5012651;28;20040;-74
2022/02/24 07:20:10;;;;;;;14.98;3.72;;;;;;;5.80;75.45;99877.16;5012537;28;20029;-73
2022/02/24 07:22:36;;;;;;;10.65;3.03;;;;;;;5.86;75.75;99904.88;5030371;28;20502;-73
2022/02/24 07:25:01;;;;;;;11.80;3.75;;;;;;;5.84;75.92;99902.34;5007885;28;20037;-73
2022/02/24 07:27:26;;;;;;;9.07;3.13;;;;;;;5.87;75.97;99899.41;4999979;28;20033;-73
2022/02/24 07:29:52;;;;;;;10.50;3.03;;;;;;;5.86;76.05;99903.03;5006806;28;20045;-73
2022/02/24 07:32:17;;;;;;;12.00;4.03;;;;;;;5.93;76.20;99920.00;4992905;28;20041;-72
2022/02/24 07:34:43;;;;;;;11.03;3.80;;;;;;;5.91;76.47;99903.41;4993080;28;20057;-73
2022/02/24 07:37:08;;;;;;;22.37;4.73;;;;;;;5.89;76.32;99900.06;5029199;28;20532;-73
2022/02/24 07:39:33;;;;;;;12.93;3.30;;;;;;;5.95;76.35;99913.72;5011392;28;20029;-72
2022/02/24 07:41:59;;;;;;;15.87;5.40;;;;;;;5.96;76.38;99907.47;5011740;28;20490;-73
2022/02/24 07:44:24;;;;;;;8.68;3.25;;;;;;;5.99;76.41;99901.84;5027523;28;20045;-73
2022/02/24 07:46:49;;;;;;;8.47;3.40;;;;;;;5.99;76.17;99897.38;5028117;28;20045;-73
2022/02/24 07:49:15;;;;;;;8.50;3.60;;;;;;;5.99;76.14;99886.78;4991735;28;20109;-73
2022/02/24 07:51:43;;;;;;;13.00;3.10;;;;;;;6.06;76.07;99894.94;4992106;28;20128;-73
2022/02/24 07:54:08;;;;;;;12.68;4.25;;;;;;;6.12;75.79;99891.69;4991744;28;20116;-72
2022/02/24 07:56:33;;;;;;;14.27;4.17;;;;;;;6.07;75.73;99867.47;5009268;28;20559;-73
2022/02/24 07:58:59;;;;;;;17.67;4.93;;;;;;;6.53;76.60;100006.81;5012648;28;20037;-73
2022/02/24 08:01:24;;;;;;;17.20;3.47;;;;;;;6.40;75.68;99910.09;4995261;28;20088;-73
2022/02/24 08:03:50;;;;;;;12.10;4.33;;;;;;;6.25;75.50;99846.19;5027889;28;20045;-73
2022/02/24 08:06:16;;;;;;;10.23;3.80;;;;;;;6.29;75.32;99866.13;5014905;28;20276;-73
2022/02/24 08:08:41;;;;;;;11.02;3.80;;;;;;;6.31;75.27;99854.38;5014663;28;20402;-72
2022/02/24 08:11:07;;;;;;;15.43;4.67;;;;;;;6.27;75.24;99845.06;5032424;28;20559;-73
2022/02/24 08:13:32;;;;;;;18.57;4.77;;;;;;;6.41;75.34;99869.34;5014860;28;20033;-72
2022/02/24 08:15:58;;;;;;;14.53;5.20;;;;;;;6.49;75.19;99890.59;5014451;28;20619;-73
2022/02/24 08:18:23;;;;;;;13.43;3.77;;;;;;;6.68;74.75;99877.09;5014632;28;20035;-73
2022/02/24 08:20:48;;;;;;;14.63;3.97;;;;;;;6.94;74.10;99886.84;5032024;28;20491;-73
2022/02/24 08:23:15;;;;;;;15.97;3.93;;;;;;;6.88;73.14;99797.25;5014494;28;20366;-73
2022/02/24 08:25:40;;;;;;;;;;;;;;;6.72;73.30;99769.69;5031434;28;20029;-72
2022/02/24 08:28:06;;;;;;;11.15;3.92;;;;;;;6.90;73.37;99803.22;5014671;28;20413;-73
2022/02/24 08:30:31;;;;;;;6.33;3.50;;;;;;;6.99;73.10;99794.31;5031915;28;20041;-72
2022/02/24 08:32:56;;;;;;;14.77;3.47;;;;;;;6.95;72.67;99761.13;5004543;28;20065;-73
2022/02/24 08:35:24;;;;;;;10.13;3.60;;;;;;;7.06;72.43;99767.94;4975358;28;20027;-73
2022/02/24 08:37:50;;;;;;;9.30;3.97;;;;;;;7.27;72.04;99778.09;4938559;28;1063718;-73
2022/02/24 08:40:18;;;;;;;9.88;4.10;;;;;;;7.23;71.45;99721.00;4993648;28;20108;-73
2022/02/24 08:42:44;;;;;;;9.55;4.78;;;;;;;7.17;71.77;99723.31;4993722;28;20053;-73
2022/02/24 08:45:13;;;;;;;12.15;5.38;;;;;;;7.32;71.05;99710.22;4976131;28;20056;-73
2022/02/24 08:47:40;;;;;;;14.05;4.47;;;;;;;7.25;70.80;99671.22;4976251;28;20082;-73
2022/02/24 08:50:06;;;;;;;;;;;;;;;6.89;71.32;99613.19;4979156;28;20085;-73
2022/02/24 08:52:31;;;;;;;10.35;4.35;;;;;;;6.85;71.65;99641.06;4995401;28;20496;-73
2022/02/24 08:54:57;;;;;;;16.57;4.43;;;;;;;7.04;71.86;99699.09;4995512;28;20154;-73
2022/02/24 08:57:22;;;;;;;12.47;3.80;;;;;;;7.15;71.78;99720.00;5013068;28;20037;-73
2022/02/24 08:59:48;;;;;;;13.77;5.10;;;;;;;6.92;71.61;99642.88;4995177;28;20034;-74
2022/02/24 09:02:13;;;;;;;12.82;5.57;;;;;;;7.06;71.78;99686.50;5012776;28;20033;-73
2022/02/24 09:04:39;;;;;;;12.18;4.40;;;;;;;7.20;71.81;99724.81;4995442;28;20026;-73
2022/02/24 09:07:04;;;;;;;11.30;4.00;;;;;;;7.25;71.48;99700.44;5000246;28;20044;-73
2022/02/24 09:09:30;;;;;;;12.50;4.05;;;;;;;6.99;71.64;99629.78;4994019;28;20042;-73
2022/02/24 09:11:55;;;;;;;11.77;5.63;;;;;;;7.06;72.02;99677.72;4995236;28;20446;-73
2022/02/24 09:14:21;;;;;;;10.53;3.87;;;;;;;7.21;71.83;99704.41;5012472;28;20062;-73
2022/02/24 09:16:46;;;;;;;16.40;5.95;;;;;;;7.10;71.71;99650.66;4995190;28;20430;-73
2022/02/24 09:19:12;;;;;;;12.77;4.90;;;;;;;7.40;71.60;99712.06;5012376;28;20198;-73
2022/02/24 09:21:39;;;;;;;13.70;4.80;;;;;;;7.49;71.70;99721.69;4994692;28;20989;-73
2022/02/24 09:24:04;;;;;;;15.60;4.90;;;;;;;7.18;71.68;99639.22;4994052;28;20041;-73
2022/02/24 09:26:30;;;;;;;9.95;4.63;;;;;;;7.33;71.92;99705.75;4994918;28;20034;-73
2022/02/24 09:28:56;;;;;;;19.08;5.82;;;;;;;7.23;71.85;99662.59;4994706;28;20041;-73
2022/02/24 09:31:21;;;;;;;14.67;4.30;;;;;;;7.24;72.39;99706.75;4994757;28;20092;-73
2022/02/24 09:33:47;;;;;;;11.93;4.20;;;;;;;7.09;72.06;99646.34;5002412;28;20045;-73
2022/02/24 09:36:13;;;;;;;12.98;4.55;;;;;;;7.08;72.54;99665.09;5032230;28;20045;-73
2022/02/24 09:38:38;;;;;;;11.27;3.63;;;;;;;7.25;72.65;99714.53;5013981;28;20041;-73
2022/02/24 09:41:05;;;;;;;18.67;5.23;;;;;;;7.40;72.33;99706.75;5031937;28;20025;-73
2022/02/24 09:43:33;;;;;;;;;;;;;;;7.15;71.99;99613.81;5014523;28;20484;-73
2022/02/24 09:46:11;;;;;;;14.50;3.85;;;;;;;7.31;72.25;99665.25;5014092;28;19913;-73
2022/02/24 09:48:41;;;;;;;11.98;3.90;;;;;;;7.68;72.00;99735.56;5013774;28;20044;-73
2022/02/24 09:51:08;;;;;;;16.52;4.43;;;;;;;7.71;71.49;99690.91;5031725;28;20037;-73
2022/02/24 09:53:37;;;;;;;13.73;4.20;;;;;;;7.76;71.08;99661.19;5032176;28;20017;-73
2022/02/24 09:56:04;;;;;;;11.48;4.68;;;;;;;7.80;70.86;99634.09;5031438;28;20029;-73
2022/02/24 09:58:31;;;;;;;12.38;3.67;;;;;;;7.78;71.06;99635.28;5031407;28;20033;-73
2022/02/24 10:00:59;;;;;;;6.38;4.07;;;;;;;7.91;70.82;99646.16;5031509;28;20021;-73
2022/02/24 10:03:40;;;;;;;9.27;3.78;;;;;;;8.05;70.36;99631.31;5013788;28;20638;-73
2022/02/24 10:06:08;;;;;;;9.52;3.80;;;;;;;7.80;69.97;99521.69;5013711;28;20498;-73
2022/02/24 10:08:36;;;;;;;10.25;3.58;;;;;;;8.20;70.19;99640.22;5031399;28;20029;-73
2022/02/24 10:11:03;;;;;;;13.48;3.40;;;;;;;8.13;69.76;99583.44;5031219;28;20056;-73
2022/02/24 10:13:30;;;;;;;14.35;3.80;;;;;;;8.16;69.82;99568.97;5013650;28;20116;-73
2022/02/24 10:16:01;;;;;;;9.60;3.80;;;;;;;8.37;69.50;99598.41;5013363;28;20037;-73
2022/02/24 10:18:28;;;;;;;17.38;3.60;;;;;;;8.48;69.21;99575.13;5013604;28;20501;-73
2022/02/24 10:21:02;;;;;;;12.93;5.28;;;;;;;8.50;68.97;99550.00;5013118;28;20040;-73
2022/02/24 10:23:38;;;;;;;13.27;3.20;;;;;;;8.83;68.42;99582.47;5013584;28;20052;-73
2022/02/24 10:26:09;;;;;;;15.48;4.10;;;;;;;8.78;67.58;99489.06;5013184;28;20398;-73
2022/02/24 10:28:49;;;;;;;13.07;4.28;;;;;;;8.38;67.85;99397.97;5013322;28;20546;-73
2022/02/24 10:31:23;;;;;;;11.27;4.47;;;;;;;8.27;68.48;99432.97;5013196;28;20042;-73
2022/02/24 10:34:12;;;;;;;12.60;3.97;;;;;;;8.47;68.35;99481.16;5013299;28;20067;-73
2022/02/24 10:36:38;;;;;;;7.63;3.10;;;;;;;8.10;68.87;99431.44;5031107;28;20040;-73
2022/02/24 10:39:07;;;;;;;;;;;;;;;7.97;69.17;99427.53;5013341;28;20037;-73
2022/02/24 10:41:35;;;;;;;9.20;3.03;;;;;;;7.88;69.84;99441.88;5013151;28;20385;-73
2022/02/24 10:44:19;;;;;;;11.25;3.50;;;;;;;8.01;70.39;99518.41;5008629;28;20038;-73
2022/02/24 10:46:49;;;;;;;7.78;3.13;;;;;;;8.18;70.30;99551.00;5011936;28;20076;-73
2022/02/24 10:49:32;;;;;;;9.95;3.78;;;;;;;8.02;70.45;99490.81;5021789;28;20494;-73
2022/02/24 10:52:16;;;;;;;10.75;3.30;;;;;;;8.14;70.10;99507.16;4993695;28;20048;-73
2022/02/24 10:54:44;;;;;;;7.15;3.80;;;;;;;8.27;69.75;99502.09;4990189;28;20125;-73
2022/02/24 10:57:19;;;;;;;14.25;4.25;;;;;;;8.41;69.33;99493.38;4973711;28;20050;-73
2022/02/24 10:59:45;;;;;;;14.32;4.35;;;;;;;8.28;69.26;99447.06;4973700;28;20034;-73
2022/02/24 11:02:10;;;;;;;7.70;2.70;;;;;;;8.22;69.09;99400.78;4998097;28;20033;-72
2022/02/24 11:04:37;;;;;;;11.13;2.97;;;;;;;8.19;69.27;99417.91;5013050;28;20156;-73
2022/02/24 11:07:03;;;;;;;7.57;2.40;;;;;;;8.19;69.51;99414.41;5012857;28;20106;-73
2022/02/24 11:09:28;;;;;;;9.43;3.28;;;;;;;8.28;69.24;99425.81;5012545;28;20503;-73
2022/02/24 11:11:55;;;;;;;10.40;3.63;;;;;;;8.42;69.20;99452.44;5012397;28;20568;-73
2022/02/24 11:14:21;;;;;;;9.00;2.67;;;;;;;8.33;69.03;99400.31;4993341;28;20041;-73
2022/02/24 11:16:47;;;;;;;;;;;;;;;8.38;68.99;99407.75;5011155;28;20124;-73
2022/02/24 11:19:15;;;;;;;8.40;2.72;;;;;;;8.00;69.58;99358.06;4976601;28;19909;-72
2022/02/24 11:21:43;;;;;;;12.73;4.05;;;;;;;8.02;69.70;99382.66;4993329;28;20509;-72
2022/02/24 11:24:08;;;;;;;7.70;2.58;;;;;;;7.80;69.59;99320.56;4992916;28;20034;-72
2022/02/24 11:26:49;;;;;;;11.20;2.30;;;;;;;8.07;69.84;99386.59;4993242;28;20022;-73
2022/02/24 11:29:24;;;;;;;9.55;2.45;;;;;;;7.99;69.66;99347.63;5010239;28;20029;-73
2022/02/24 11:32:09;;;;;;;11.05;3.10;;;;;;;8.40;69.46;99409.25;4995387;28;20041;-73